LGAV/ATH METAR and TAF weather

Enter ICAO airport designator
Station Type Date Time Source
LGAV METAR 2020/09/28 07:50 UTC NOAA

LGAV 280750Z 18011KT 9999 SCT025 25/18 Q1017 NOSIG


Station Type Date Time Source
LGAV Decoded METAR 2020/09/28 07:50 UTC NOAA

Athens Eleftherios Venizelos International Airport, Greece (LGAV) 37-56N 023-56E
Sep 28, 2020 - 03:50 AM EDT / 2020.09.28 0750 UTC
Wind: from the S (180 degrees) at 13 MPH (11 KT):0
Visibility: greater than 7 mile(s):0
Sky conditions: partly cloudy
Temperature: 77 F (25 C)
Dew Point: 64 F (18 C)
Relative Humidity: 65%
Pressure (altimeter): 30.03 in. Hg (1017 hPa)
ob: LGAV 280750Z 18011KT 9999 SCT025 25/18 Q1017 NOSIG
cycle: 8

Station Type Date Time Source
LGAV TAF 2020/09/28 06:12 UTC NOAA

TAF TAF LGAV 280500Z 2806/2906 18010KT 9999 SCT020
TEMPO 2806/2820 18015G25KT PROB30
TEMPO 2806/2818 5000 RA FEW018TCU BKN025
BECMG 2820/2822 26010KT

Example: see airport list